sensor_id;sensor_type;location;lat;lon;timestamp;P1;durP1;ratioP1;P2;durP2;ratioP2
11092;SDS011;5600;50.864;6.102;2022-10-22T00:01:03;44.47;;;4.83;;
11092;SDS011;5600;50.864;6.102;2022-10-22T00:04:04;42.90;;;4.37;;
11092;SDS011;5600;50.864;6.102;2022-10-22T00:07:05;40.53;;;4.30;;
11092;SDS011;5600;50.864;6.102;2022-10-22T00:10:06;34.13;;;4.10;;
11092;SDS011;5600;50.864;6.102;2022-10-22T00:13:08;40.27;;;4.30;;
11092;SDS011;5600;50.864;6.102;2022-10-22T00:16:10;37.27;;;4.37;;
11092;SDS011;5600;50.864;6.102;2022-10-22T00:19:11;42.27;;;4.57;;
11092;SDS011;5600;50.864;6.102;2022-10-22T00:22:12;39.20;;;4.43;;
11092;SDS011;5600;50.864;6.102;2022-10-22T00:25:13;88.17;;;7.20;;
11092;SDS011;5600;50.864;6.102;2022-10-22T00:28:14;26.67;;;3.73;;
11092;SDS011;5600;50.864;6.102;2022-10-22T00:31:14;26.60;;;3.90;;
11092;SDS011;5600;50.864;6.102;2022-10-22T00:34:16;36.13;;;4.53;;
11092;SDS011;5600;50.864;6.102;2022-10-22T00:37:17;14.47;;;3.33;;
11092;SDS011;5600;50.864;6.102;2022-10-22T00:40:17;25.03;;;3.63;;
11092;SDS011;5600;50.864;6.102;2022-10-22T00:43:19;35.97;;;4.43;;
11092;SDS011;5600;50.864;6.102;2022-10-22T00:46:20;39.87;;;4.70;;
11092;SDS011;5600;50.864;6.102;2022-10-22T00:49:20;39.80;;;4.53;;
11092;SDS011;5600;50.864;6.102;2022-10-22T00:52:21;40.13;;;4.43;;
11092;SDS011;5600;50.864;6.102;2022-10-22T00:55:23;53.33;;;5.17;;
11092;SDS011;5600;50.864;6.102;2022-10-22T00:58:26;39.60;;;4.27;;
11092;SDS011;5600;50.864;6.102;2022-10-22T01:01:30;53.23;;;5.33;;
11092;SDS011;5600;50.864;6.102;2022-10-22T01:04:31;39.70;;;4.70;;
11092;SDS011;5600;50.864;6.102;2022-10-22T01:07:32;37.67;;;4.43;;
11092;SDS011;5600;50.864;6.102;2022-10-22T01:10:47;36.90;;;4.10;;
11092;SDS011;5600;50.864;6.102;2022-10-22T01:24:02;33.93;;;4.60;;
11092;SDS011;5600;50.864;6.102;2022-10-22T01:27:08;37.90;;;4.70;;
11092;SDS011;5600;50.864;6.102;2022-10-22T01:30:11;39.50;;;4.37;;
11092;SDS011;5600;50.864;6.102;2022-10-22T01:33:14;38.47;;;4.37;;
11092;SDS011;5600;50.864;6.102;2022-10-22T01:36:17;38.53;;;4.20;;
11092;SDS011;5600;50.864;6.102;2022-10-22T01:39:18;39.97;;;4.30;;
11092;SDS011;5600;50.864;6.102;2022-10-22T01:42:20;29.50;;;3.77;;
11092;SDS011;5600;50.864;6.102;2022-10-22T01:45:22;50.23;;;5.10;;
11092;SDS011;5600;50.864;6.102;2022-10-22T01:51:37;44.70;;;4.40;;
11092;SDS011;5600;50.864;6.102;2022-10-22T01:55:15;51.90;;;5.23;;
11092;SDS011;5600;50.864;6.102;2022-10-22T01:58:45;40.97;;;4.60;;
11092;SDS011;5600;50.864;6.102;2022-10-22T02:02:07;30.07;;;3.90;;
11092;SDS011;5600;50.864;6.102;2022-10-22T02:05:18;53.17;;;4.93;;
11092;SDS011;5600;50.864;6.102;2022-10-22T02:08:28;33.80;;;4.00;;
11092;SDS011;5600;50.864;6.102;2022-10-22T02:11:31;47.43;;;5.00;;
11092;SDS011;5600;50.864;6.102;2022-10-22T02:14:33;47.80;;;4.80;;
11092;SDS011;5600;50.864;6.102;2022-10-22T02:17:36;38.47;;;4.27;;
11092;SDS011;5600;50.864;6.102;2022-10-22T02:20:39;36.07;;;4.30;;
11092;SDS011;5600;50.864;6.102;2022-10-22T02:23:41;41.57;;;4.30;;
11092;SDS011;5600;50.864;6.102;2022-10-22T02:27:06;37.17;;;4.17;;
11092;SDS011;5600;50.864;6.102;2022-10-22T02:30:09;41.33;;;4.40;;
11092;SDS011;5600;50.864;6.102;2022-10-22T02:33:17;38.13;;;4.23;;
11092;SDS011;5600;50.864;6.102;2022-10-22T02:36:21;33.60;;;4.33;;
11092;SDS011;5600;50.864;6.102;2022-10-22T02:39:23;37.07;;;4.80;;
11092;SDS011;5600;50.864;6.102;2022-10-22T02:42:25;32.20;;;3.93;;
11092;SDS011;5600;50.864;6.102;2022-10-22T02:45:27;35.03;;;4.10;;
11092;SDS011;5600;50.864;6.102;2022-10-22T02:48:28;45.70;;;4.87;;
11092;SDS011;5600;50.864;6.102;2022-10-22T02:51:29;41.20;;;4.87;;
11092;SDS011;5600;50.864;6.102;2022-10-22T02:54:30;45.53;;;4.73;;
11092;SDS011;5600;50.864;6.102;2022-10-22T02:57:31;41.87;;;4.57;;
11092;SDS011;5600;50.864;6.102;2022-10-22T03:00:32;69.10;;;6.27;;
11092;SDS011;5600;50.864;6.102;2022-10-22T03:03:33;40.20;;;4.83;;
11092;SDS011;5600;50.864;6.102;2022-10-22T03:06:33;43.90;;;5.03;;
11092;SDS011;5600;50.864;6.102;2022-10-22T03:09:34;37.30;;;4.40;;
11092;SDS011;5600;50.864;6.102;2022-10-22T03:12:35;46.67;;;5.30;;
11092;SDS011;5600;50.864;6.102;2022-10-22T03:15:35;38.13;;;4.77;;
11092;SDS011;5600;50.864;6.102;2022-10-22T03:18:36;39.60;;;4.87;;
11092;SDS011;5600;50.864;6.102;2022-10-22T03:21:38;39.60;;;4.67;;
11092;SDS011;5600;50.864;6.102;2022-10-22T03:24:43;32.30;;;4.40;;
11092;SDS011;5600;50.864;6.102;2022-10-22T03:27:46;31.93;;;4.40;;
11092;SDS011;5600;50.864;6.102;2022-10-22T03:30:48;37.73;;;4.87;;
11092;SDS011;5600;50.864;6.102;2022-10-22T03:33:49;54.70;;;6.07;;
11092;SDS011;5600;50.864;6.102;2022-10-22T03:36:50;39.80;;;4.97;;
11092;SDS011;5600;50.864;6.102;2022-10-22T03:39:51;52.20;;;5.60;;
11092;SDS011;5600;50.864;6.102;2022-10-22T03:42:53;40.93;;;4.77;;
11092;SDS011;5600;50.864;6.102;2022-10-22T03:45:54;39.47;;;4.67;;
11092;SDS011;5600;50.864;6.102;2022-10-22T03:48:55;32.23;;;4.13;;
11092;SDS011;5600;50.864;6.102;2022-10-22T03:51:56;35.67;;;4.33;;
11092;SDS011;5600;50.864;6.102;2022-10-22T03:54:56;46.53;;;5.03;;
11092;SDS011;5600;50.864;6.102;2022-10-22T03:57:58;43.23;;;4.67;;
11092;SDS011;5600;50.864;6.102;2022-10-22T04:01:03;36.27;;;4.23;;
11092;SDS011;5600;50.864;6.102;2022-10-22T04:04:05;41.73;;;4.47;;
11092;SDS011;5600;50.864;6.102;2022-10-22T04:07:06;42.73;;;4.27;;
11092;SDS011;5600;50.864;6.102;2022-10-22T04:10:07;36.97;;;4.00;;
11092;SDS011;5600;50.864;6.102;2022-10-22T04:13:08;42.23;;;4.37;;
11092;SDS011;5600;50.864;6.102;2022-10-22T04:16:13;38.53;;;4.13;;
11092;SDS011;5600;50.864;6.102;2022-10-22T04:19:18;40.77;;;4.40;;
11092;SDS011;5600;50.864;6.102;2022-10-22T04:22:19;46.75;;;4.38;;
11092;SDS011;5600;50.864;6.102;2022-10-22T04:25:20;49.80;;;4.80;;
11092;SDS011;5600;50.864;6.102;2022-10-22T04:28:21;27.73;;;3.30;;
11092;SDS011;5600;50.864;6.102;2022-10-22T04:31:23;46.27;;;4.60;;
11092;SDS011;5600;50.864;6.102;2022-10-22T04:34:28;44.37;;;4.20;;
11092;SDS011;5600;50.864;6.102;2022-10-22T04:37:28;33.33;;;3.80;;
11092;SDS011;5600;50.864;6.102;2022-10-22T04:40:29;37.67;;;4.00;;
11092;SDS011;5600;50.864;6.102;2022-10-22T04:43:30;39.40;;;3.90;;
11092;SDS011;5600;50.864;6.102;2022-10-22T04:46:31;36.37;;;4.17;;
11092;SDS011;5600;50.864;6.102;2022-10-22T04:49:33;40.50;;;4.13;;
11092;SDS011;5600;50.864;6.102;2022-10-22T04:52:34;44.77;;;4.20;;
11092;SDS011;5600;50.864;6.102;2022-10-22T04:55:34;41.47;;;4.20;;
11092;SDS011;5600;50.864;6.102;2022-10-22T04:58:35;50.00;;;4.73;;
11092;SDS011;5600;50.864;6.102;2022-10-22T05:01:38;38.75;;;3.92;;
11092;SDS011;5600;50.864;6.102;2022-10-22T05:04:42;39.27;;;4.10;;
11092;SDS011;5600;50.864;6.102;2022-10-22T05:07:43;41.53;;;4.07;;
11092;SDS011;5600;50.864;6.102;2022-10-22T05:10:44;45.83;;;4.23;;
11092;SDS011;5600;50.864;6.102;2022-10-22T05:13:44;36.80;;;3.70;;
11092;SDS011;5600;50.864;6.102;2022-10-22T05:16:45;48.33;;;4.20;;
11092;SDS011;5600;50.864;6.102;2022-10-22T05:19:47;37.88;;;3.75;;
11092;SDS011;5600;50.864;6.102;2022-10-22T05:22:47;40.70;;;4.03;;
11092;SDS011;5600;50.864;6.102;2022-10-22T05:25:48;48.00;;;4.20;;
11092;SDS011;5600;50.864;6.102;2022-10-22T05:28:49;31.50;;;3.35;;
11092;SDS011;5600;50.864;6.102;2022-10-22T05:31:49;42.88;;;3.72;;
11092;SDS011;5600;50.864;6.102;2022-10-22T05:34:50;40.97;;;3.83;;
11092;SDS011;5600;50.864;6.102;2022-10-22T05:37:51;39.45;;;3.78;;
11092;SDS011;5600;50.864;6.102;2022-10-22T05:41:05;43.60;;;4.03;;
11092;SDS011;5600;50.864;6.102;2022-10-22T05:44:09;49.03;;;4.27;;
11092;SDS011;5600;50.864;6.102;2022-10-22T05:47:11;48.35;;;4.10;;
11092;SDS011;5600;50.864;6.102;2022-10-22T05:50:12;40.00;;;3.73;;
11092;SDS011;5600;50.864;6.102;2022-10-22T05:53:12;40.00;;;3.77;;
11092;SDS011;5600;50.864;6.102;2022-10-22T05:56:14;42.47;;;3.93;;
11092;SDS011;5600;50.864;6.102;2022-10-22T05:59:15;36.07;;;3.30;;
11092;SDS011;5600;50.864;6.102;2022-10-22T06:02:16;50.17;;;4.13;;
11092;SDS011;5600;50.864;6.102;2022-10-22T06:05:16;53.03;;;4.10;;
11092;SDS011;5600;50.864;6.102;2022-10-22T06:08:17;42.10;;;4.00;;
11092;SDS011;5600;50.864;6.102;2022-10-22T06:11:18;40.17;;;3.80;;
11092;SDS011;5600;50.864;6.102;2022-10-22T06:14:21;30.80;;;3.13;;
11092;SDS011;5600;50.864;6.102;2022-10-22T06:17:22;37.07;;;3.70;;
11092;SDS011;5600;50.864;6.102;2022-10-22T06:20:23;37.80;;;3.60;;
11092;SDS011;5600;50.864;6.102;2022-10-22T06:23:23;38.90;;;3.60;;
11092;SDS011;5600;50.864;6.102;2022-10-22T06:26:24;34.97;;;3.20;;
11092;SDS011;5600;50.864;6.102;2022-10-22T06:29:25;44.87;;;4.20;;
11092;SDS011;5600;50.864;6.102;2022-10-22T06:32:26;40.50;;;3.70;;
11092;SDS011;5600;50.864;6.102;2022-10-22T06:35:26;28.60;;;3.13;;
11092;SDS011;5600;50.864;6.102;2022-10-22T06:38:27;46.60;;;4.27;;
11092;SDS011;5600;50.864;6.102;2022-10-22T06:41:28;43.23;;;4.10;;
11092;SDS011;5600;50.864;6.102;2022-10-22T06:44:29;37.90;;;4.20;;
11092;SDS011;5600;50.864;6.102;2022-10-22T06:47:29;33.03;;;3.67;;
11092;SDS011;5600;50.864;6.102;2022-10-22T06:50:33;45.07;;;4.00;;
11092;SDS011;5600;50.864;6.102;2022-10-22T06:53:34;39.63;;;3.70;;
11092;SDS011;5600;50.864;6.102;2022-10-22T06:56:35;48.27;;;3.93;;
11092;SDS011;5600;50.864;6.102;2022-10-22T06:59:36;46.87;;;4.03;;
11092;SDS011;5600;50.864;6.102;2022-10-22T07:02:37;44.67;;;4.10;;
11092;SDS011;5600;50.864;6.102;2022-10-22T07:05:38;38.05;;;3.78;;
11092;SDS011;5600;50.864;6.102;2022-10-22T07:08:40;44.10;;;3.93;;
11092;SDS011;5600;50.864;6.102;2022-10-22T07:11:43;47.83;;;4.00;;
11092;SDS011;5600;50.864;6.102;2022-10-22T07:14:44;58.23;;;4.60;;
11092;SDS011;5600;50.864;6.102;2022-10-22T07:17:45;46.70;;;4.18;;
11092;SDS011;5600;50.864;6.102;2022-10-22T07:20:47;40.73;;;3.60;;
11092;SDS011;5600;50.864;6.102;2022-10-22T07:23:48;68.20;;;5.33;;
11092;SDS011;5600;50.864;6.102;2022-10-22T07:26:49;44.13;;;3.75;;
11092;SDS011;5600;50.864;6.102;2022-10-22T07:29:50;38.70;;;3.20;;
11092;SDS011;5600;50.864;6.102;2022-10-22T07:32:50;31.90;;;3.40;;
11092;SDS011;5600;50.864;6.102;2022-10-22T07:35:56;44.17;;;3.60;;
11092;SDS011;5600;50.864;6.102;2022-10-22T07:38:59;41.75;;;3.75;;
11092;SDS011;5600;50.864;6.102;2022-10-22T07:42:00;35.95;;;3.35;;
11092;SDS011;5600;50.864;6.102;2022-10-22T07:45:01;41.25;;;3.70;;
11092;SDS011;5600;50.864;6.102;2022-10-22T07:48:02;42.75;;;3.75;;
11092;SDS011;5600;50.864;6.102;2022-10-22T07:51:03;37.33;;;3.80;;
11092;SDS011;5600;50.864;6.102;2022-10-22T07:54:04;71.20;;;5.25;;
11092;SDS011;5600;50.864;6.102;2022-10-22T07:57:05;25.45;;;2.60;;
11092;SDS011;5600;50.864;6.102;2022-10-22T08:00:06;45.08;;;3.85;;
11092;SDS011;5600;50.864;6.102;2022-10-22T08:03:14;35.05;;;3.42;;
11092;SDS011;5600;50.864;6.102;2022-10-22T08:06:16;46.63;;;4.07;;
11092;SDS011;5600;50.864;6.102;2022-10-22T08:09:17;42.58;;;3.65;;
11092;SDS011;5600;50.864;6.102;2022-10-22T08:12:17;47.60;;;3.97;;
11092;SDS011;5600;50.864;6.102;2022-10-22T08:15:18;60.38;;;4.53;;
11092;SDS011;5600;50.864;6.102;2022-10-22T08:18:19;42.05;;;3.65;;
11092;SDS011;5600;50.864;6.102;2022-10-22T08:21:19;48.38;;;3.90;;
11092;SDS011;5600;50.864;6.102;2022-10-22T08:24:20;41.05;;;3.75;;
11092;SDS011;5600;50.864;6.102;2022-10-22T08:27:21;41.17;;;3.85;;
11092;SDS011;5600;50.864;6.102;2022-10-22T08:30:22;44.28;;;3.72;;
11092;SDS011;5600;50.864;6.102;2022-10-22T08:33:23;44.28;;;3.83;;
11092;SDS011;5600;50.864;6.102;2022-10-22T08:36:24;34.83;;;3.30;;
11092;SDS011;5600;50.864;6.102;2022-10-22T08:39:25;34.67;;;3.22;;
11092;SDS011;5600;50.864;6.102;2022-10-22T08:46:18;52.08;;;4.38;;
11092;SDS011;5600;50.864;6.102;2022-10-22T08:49:41;40.67;;;3.67;;
11092;SDS011;5600;50.864;6.102;2022-10-22T08:52:43;45.55;;;3.85;;
11092;SDS011;5600;50.864;6.102;2022-10-22T08:55:48;46.40;;;4.00;;
11092;SDS011;5600;50.864;6.102;2022-10-22T08:58:54;44.63;;;3.83;;
11092;SDS011;5600;50.864;6.102;2022-10-22T09:02:11;26.80;;;2.78;;
11092;SDS011;5600;50.864;6.102;2022-10-22T09:05:38;51.63;;;4.03;;
11092;SDS011;5600;50.864;6.102;2022-10-22T09:08:42;41.17;;;3.55;;
11092;SDS011;5600;50.864;6.102;2022-10-22T09:11:46;37.78;;;3.60;;
11092;SDS011;5600;50.864;6.102;2022-10-22T09:14:49;57.65;;;4.60;;
11092;SDS011;5600;50.864;6.102;2022-10-22T09:17:54;39.28;;;3.70;;
11092;SDS011;5600;50.864;6.102;2022-10-22T09:24:38;49.00;;;4.05;;
11092;SDS011;5600;50.864;6.102;2022-10-22T09:27:43;48.45;;;4.05;;
11092;SDS011;5600;50.864;6.102;2022-10-22T09:30:43;32.85;;;3.28;;
11092;SDS011;5600;50.864;6.102;2022-10-22T09:33:45;52.17;;;4.35;;
11092;SDS011;5600;50.864;6.102;2022-10-22T09:36:56;53.85;;;4.22;;
11092;SDS011;5600;50.864;6.102;2022-10-22T09:39:57;41.17;;;3.42;;
11092;SDS011;5600;50.864;6.102;2022-10-22T09:43:04;47.97;;;3.70;;
11092;SDS011;5600;50.864;6.102;2022-10-22T09:46:05;39.28;;;3.50;;
11092;SDS011;5600;50.864;6.102;2022-10-22T09:49:17;31.70;;;3.03;;
11092;SDS011;5600;50.864;6.102;2022-10-22T09:52:23;47.42;;;4.15;;
11092;SDS011;5600;50.864;6.102;2022-10-22T09:55:27;43.38;;;3.75;;
11092;SDS011;5600;50.864;6.102;2022-10-22T09:58:28;28.80;;;2.80;;
11092;SDS011;5600;50.864;6.102;2022-10-22T10:01:33;54.40;;;4.25;;
11092;SDS011;5600;50.864;6.102;2022-10-22T10:04:41;46.95;;;3.88;;
11092;SDS011;5600;50.864;6.102;2022-10-22T10:07:47;53.22;;;4.20;;
11092;SDS011;5600;50.864;6.102;2022-10-22T10:17:11;46.97;;;3.85;;
11092;SDS011;5600;50.864;6.102;2022-10-22T10:20:38;35.53;;;3.53;;
11092;SDS011;5600;50.864;6.102;2022-10-22T10:27:25;39.67;;;3.50;;
11092;SDS011;5600;50.864;6.102;2022-10-22T10:30:27;48.97;;;3.80;;
11092;SDS011;5600;50.864;6.102;2022-10-22T10:33:39;30.35;;;3.20;;
11092;SDS011;5600;50.864;6.102;2022-10-22T10:36:44;48.35;;;3.80;;
11092;SDS011;5600;50.864;6.102;2022-10-22T10:40:26;54.47;;;4.43;;
11092;SDS011;5600;50.864;6.102;2022-10-22T10:43:37;51.22;;;4.15;;
11092;SDS011;5600;50.864;6.102;2022-10-22T10:46:47;39.78;;;3.50;;
11092;SDS011;5600;50.864;6.102;2022-10-22T10:50:04;45.22;;;4.05;;
11092;SDS011;5600;50.864;6.102;2022-10-22T10:53:24;48.30;;;4.10;;
11092;SDS011;5600;50.864;6.102;2022-10-22T10:57:02;57.03;;;4.45;;
11092;SDS011;5600;50.864;6.102;2022-10-22T11:00:15;38.67;;;3.30;;
11092;SDS011;5600;50.864;6.102;2022-10-22T11:06:31;49.35;;;3.88;;
11092;SDS011;5600;50.864;6.102;2022-10-22T11:09:36;47.13;;;3.83;;
11092;SDS011;5600;50.864;6.102;2022-10-22T11:12:43;44.13;;;3.50;;
11092;SDS011;5600;50.864;6.102;2022-10-22T11:15:59;49.33;;;3.97;;
11092;SDS011;5600;50.864;6.102;2022-10-22T11:23:05;28.77;;;3.03;;
11092;SDS011;5600;50.864;6.102;2022-10-22T11:26:18;33.20;;;3.40;;
11092;SDS011;5600;50.864;6.102;2022-10-22T11:29:32;43.03;;;3.50;;
11092;SDS011;5600;50.864;6.102;2022-10-22T11:32:38;33.15;;;2.83;;
11092;SDS011;5600;50.864;6.102;2022-10-22T11:35:43;39.90;;;3.22;;
11092;SDS011;5600;50.864;6.102;2022-10-22T11:38:45;27.70;;;2.67;;
11092;SDS011;5600;50.864;6.102;2022-10-22T11:41:46;33.05;;;2.95;;
11092;SDS011;5600;50.864;6.102;2022-10-22T11:51:28;34.33;;;3.15;;
11092;SDS011;5600;50.864;6.102;2022-10-22T11:57:36;26.15;;;2.42;;
11092;SDS011;5600;50.864;6.102;2022-10-22T12:00:39;39.80;;;3.78;;
11092;SDS011;5600;50.864;6.102;2022-10-22T12:04:14;37.45;;;3.33;;
11092;SDS011;5600;50.864;6.102;2022-10-22T12:07:29;34.78;;;3.03;;
11092;SDS011;5600;50.864;6.102;2022-10-22T12:10:34;30.63;;;2.92;;
11092;SDS011;5600;50.864;6.102;2022-10-22T12:13:57;34.20;;;3.25;;
11092;SDS011;5600;50.864;6.102;2022-10-22T12:20:10;35.75;;;5.57;;
11092;SDS011;5600;50.864;6.102;2022-10-22T12:23:13;65.45;;;5.32;;
11092;SDS011;5600;50.864;6.102;2022-10-22T12:26:24;70.90;;;5.35;;
11092;SDS011;5600;50.864;6.102;2022-10-22T12:29:29;90.45;;;6.95;;
11092;SDS011;5600;50.864;6.102;2022-10-22T12:32:33;48.60;;;4.55;;
11092;SDS011;5600;50.864;6.102;2022-10-22T12:35:43;52.92;;;5.25;;
11092;SDS011;5600;50.864;6.102;2022-10-22T12:38:45;66.55;;;5.80;;
11092;SDS011;5600;50.864;6.102;2022-10-22T12:41:46;51.13;;;5.22;;
11092;SDS011;5600;50.864;6.102;2022-10-22T12:44:47;42.13;;;3.65;;
11092;SDS011;5600;50.864;6.102;2022-10-22T12:47:56;55.05;;;4.32;;
11092;SDS011;5600;50.864;6.102;2022-10-22T12:50:59;35.00;;;3.25;;
11092;SDS011;5600;50.864;6.102;2022-10-22T12:54:05;37.17;;;3.35;;
11092;SDS011;5600;50.864;6.102;2022-10-22T12:57:09;51.75;;;3.95;;
11092;SDS011;5600;50.864;6.102;2022-10-22T13:00:20;50.55;;;4.10;;
11092;SDS011;5600;50.864;6.102;2022-10-22T13:03:24;45.10;;;3.83;;
11092;SDS011;5600;50.864;6.102;2022-10-22T13:06:27;53.38;;;5.20;;
11092;SDS011;5600;50.864;6.102;2022-10-22T13:09:36;48.97;;;4.38;;
11092;SDS011;5600;50.864;6.102;2022-10-22T13:12:37;78.05;;;5.55;;
11092;SDS011;5600;50.864;6.102;2022-10-22T13:15:43;63.25;;;5.60;;
11092;SDS011;5600;50.864;6.102;2022-10-22T13:18:45;51.75;;;4.22;;
11092;SDS011;5600;50.864;6.102;2022-10-22T13:21:47;61.42;;;4.55;;
11092;SDS011;5600;50.864;6.102;2022-10-22T13:24:48;110.25;;;7.00;;
11092;SDS011;5600;50.864;6.102;2022-10-22T13:31:01;90.50;;;6.25;;
11092;SDS011;5600;50.864;6.102;2022-10-22T13:34:11;102.75;;;6.65;;
11092;SDS011;5600;50.864;6.102;2022-10-22T13:37:16;87.72;;;5.95;;
11092;SDS011;5600;50.864;6.102;2022-10-22T13:40:17;65.72;;;4.70;;
11092;SDS011;5600;50.864;6.102;2022-10-22T13:43:18;118.38;;;7.28;;
11092;SDS011;5600;50.864;6.102;2022-10-22T13:46:19;108.55;;;6.85;;
11092;SDS011;5600;50.864;6.102;2022-10-22T13:49:21;79.03;;;5.22;;
11092;SDS011;5600;50.864;6.102;2022-10-22T13:52:37;124.53;;;7.60;;
11092;SDS011;5600;50.864;6.102;2022-10-22T13:55:44;77.18;;;5.15;;
11092;SDS011;5600;50.864;6.102;2022-10-22T13:58:45;109.85;;;7.10;;
11092;SDS011;5600;50.864;6.102;2022-10-22T14:01:47;63.53;;;4.63;;
11092;SDS011;5600;50.864;6.102;2022-10-22T14:04:48;61.20;;;4.40;;
11092;SDS011;5600;50.864;6.102;2022-10-22T14:07:49;53.70;;;4.28;;
11092;SDS011;5600;50.864;6.102;2022-10-22T14:10:51;43.60;;;3.72;;
11092;SDS011;5600;50.864;6.102;2022-10-22T14:13:53;34.65;;;2.97;;
11092;SDS011;5600;50.864;6.102;2022-10-22T14:16:53;35.45;;;3.10;;
11092;SDS011;5600;50.864;6.102;2022-10-22T14:19:54;34.00;;;2.90;;
11092;SDS011;5600;50.864;6.102;2022-10-22T14:22:55;38.92;;;3.47;;
11092;SDS011;5600;50.864;6.102;2022-10-22T14:26:02;41.63;;;3.42;;
11092;SDS011;5600;50.864;6.102;2022-10-22T14:29:03;32.13;;;2.78;;
11092;SDS011;5600;50.864;6.102;2022-10-22T14:32:15;39.13;;;3.22;;
11092;SDS011;5600;50.864;6.102;2022-10-22T14:35:20;79.63;;;5.35;;
11092;SDS011;5600;50.864;6.102;2022-10-22T14:38:21;32.80;;;3.90;;
11092;SDS011;5600;50.864;6.102;2022-10-22T14:41:24;26.90;;;2.47;;
11092;SDS011;5600;50.864;6.102;2022-10-22T14:44:27;36.60;;;3.17;;
11092;SDS011;5600;50.864;6.102;2022-10-22T14:47:28;49.13;;;4.10;;
11092;SDS011;5600;50.864;6.102;2022-10-22T14:50:28;43.97;;;3.50;;
11092;SDS011;5600;50.864;6.102;2022-10-22T14:53:29;43.30;;;3.30;;
11092;SDS011;5600;50.864;6.102;2022-10-22T14:56:30;30.83;;;2.90;;
11092;SDS011;5600;50.864;6.102;2022-10-22T14:59:30;29.95;;;2.58;;
11092;SDS011;5600;50.864;6.102;2022-10-22T15:02:31;32.13;;;2.72;;
11092;SDS011;5600;50.864;6.102;2022-10-22T15:05:32;28.92;;;2.83;;
11092;SDS011;5600;50.864;6.102;2022-10-22T15:08:33;61.90;;;4.63;;
11092;SDS011;5600;50.864;6.102;2022-10-22T15:11:34;45.97;;;3.63;;
11092;SDS011;5600;50.864;6.102;2022-10-22T15:14:34;35.75;;;3.05;;
11092;SDS011;5600;50.864;6.102;2022-10-22T15:17:35;36.38;;;3.25;;
11092;SDS011;5600;50.864;6.102;2022-10-22T15:20:36;35.08;;;3.33;;
11092;SDS011;5600;50.864;6.102;2022-10-22T15:23:36;38.50;;;3.85;;
11092;SDS011;5600;50.864;6.102;2022-10-22T15:26:38;30.80;;;3.03;;
11092;SDS011;5600;50.864;6.102;2022-10-22T15:29:39;34.13;;;3.00;;
11092;SDS011;5600;50.864;6.102;2022-10-22T15:32:40;34.15;;;3.15;;
11092;SDS011;5600;50.864;6.102;2022-10-22T15:35:41;34.80;;;3.20;;
11092;SDS011;5600;50.864;6.102;2022-10-22T15:38:42;28.75;;;2.65;;
11092;SDS011;5600;50.864;6.102;2022-10-22T15:41:43;29.92;;;2.63;;
11092;SDS011;5600;50.864;6.102;2022-10-22T15:44:44;48.92;;;4.00;;
11092;SDS011;5600;50.864;6.102;2022-10-22T15:47:45;30.23;;;2.90;;
11092;SDS011;5600;50.864;6.102;2022-10-22T15:50:47;38.22;;;3.42;;
11092;SDS011;5600;50.864;6.102;2022-10-22T15:53:51;29.77;;;2.92;;
11092;SDS011;5600;50.864;6.102;2022-10-22T15:56:56;47.10;;;4.05;;
11092;SDS011;5600;50.864;6.102;2022-10-22T15:59:59;31.90;;;3.35;;
11092;SDS011;5600;50.864;6.102;2022-10-22T16:02:59;39.67;;;3.78;;
11092;SDS011;5600;50.864;6.102;2022-10-22T16:06:00;40.47;;;3.63;;
11092;SDS011;5600;50.864;6.102;2022-10-22T16:09:03;35.08;;;3.33;;
11092;SDS011;5600;50.864;6.102;2022-10-22T16:12:06;46.03;;;3.88;;
11092;SDS011;5600;50.864;6.102;2022-10-22T16:15:07;56.80;;;4.38;;
11092;SDS011;5600;50.864;6.102;2022-10-22T16:18:09;81.72;;;5.82;;
11092;SDS011;5600;50.864;6.102;2022-10-22T16:21:12;23.23;;;2.30;;
11092;SDS011;5600;50.864;6.102;2022-10-22T16:24:14;34.85;;;3.00;;
11092;SDS011;5600;50.864;6.102;2022-10-22T16:27:14;41.75;;;3.60;;
11092;SDS011;5600;50.864;6.102;2022-10-22T16:30:15;33.67;;;2.85;;
11092;SDS011;5600;50.864;6.102;2022-10-22T16:33:16;38.45;;;3.13;;
11092;SDS011;5600;50.864;6.102;2022-10-22T16:36:18;23.00;;;2.30;;
11092;SDS011;5600;50.864;6.102;2022-10-22T16:39:19;36.38;;;3.08;;
11092;SDS011;5600;50.864;6.102;2022-10-22T16:42:20;37.17;;;3.22;;
11092;SDS011;5600;50.864;6.102;2022-10-22T16:45:21;49.83;;;3.90;;
11092;SDS011;5600;50.864;6.102;2022-10-22T16:48:21;46.92;;;3.92;;
11092;SDS011;5600;50.864;6.102;2022-10-22T16:51:23;45.13;;;3.78;;
11092;SDS011;5600;50.864;6.102;2022-10-22T16:54:25;28.98;;;3.13;;
11092;SDS011;5600;50.864;6.102;2022-10-22T16:57:26;32.40;;;3.40;;
11092;SDS011;5600;50.864;6.102;2022-10-22T17:00:27;37.22;;;3.60;;
11092;SDS011;5600;50.864;6.102;2022-10-22T17:03:28;39.70;;;3.63;;
11092;SDS011;5600;50.864;6.102;2022-10-22T17:06:29;30.70;;;3.63;;
11092;SDS011;5600;50.864;6.102;2022-10-22T17:09:30;38.55;;;4.00;;
11092;SDS011;5600;50.864;6.102;2022-10-22T17:12:30;35.00;;;3.80;;
11092;SDS011;5600;50.864;6.102;2022-10-22T17:15:34;35.33;;;3.90;;
11092;SDS011;5600;50.864;6.102;2022-10-22T17:18:35;36.83;;;3.78;;
11092;SDS011;5600;50.864;6.102;2022-10-22T17:21:37;29.57;;;3.40;;
11092;SDS011;5600;50.864;6.102;2022-10-22T17:24:38;33.23;;;3.70;;
11092;SDS011;5600;50.864;6.102;2022-10-22T17:27:42;41.47;;;4.13;;
11092;SDS011;5600;50.864;6.102;2022-10-22T17:30:43;35.67;;;3.70;;
11092;SDS011;5600;50.864;6.102;2022-10-22T17:33:44;36.00;;;4.03;;
11092;SDS011;5600;50.864;6.102;2022-10-22T17:36:46;41.93;;;4.33;;
11092;SDS011;5600;50.864;6.102;2022-10-22T17:39:46;47.77;;;4.37;;
11092;SDS011;5600;50.864;6.102;2022-10-22T17:42:47;33.17;;;3.87;;
11092;SDS011;5600;50.864;6.102;2022-10-22T17:45:48;41.10;;;4.27;;
11092;SDS011;5600;50.864;6.102;2022-10-22T17:48:50;39.10;;;4.40;;
11092;SDS011;5600;50.864;6.102;2022-10-22T17:51:51;50.60;;;4.90;;
11092;SDS011;5600;50.864;6.102;2022-10-22T17:54:52;40.87;;;4.17;;
11092;SDS011;5600;50.864;6.102;2022-10-22T17:57:53;43.63;;;4.30;;
11092;SDS011;5600;50.864;6.102;2022-10-22T18:00:54;22.90;;;3.37;;
11092;SDS011;5600;50.864;6.102;2022-10-22T18:03:57;33.90;;;3.83;;
11092;SDS011;5600;50.864;6.102;2022-10-22T18:06:59;35.13;;;4.07;;
11092;SDS011;5600;50.864;6.102;2022-10-22T18:10:00;30.53;;;3.63;;
11092;SDS011;5600;50.864;6.102;2022-10-22T18:13:01;37.27;;;4.07;;
11092;SDS011;5600;50.864;6.102;2022-10-22T18:16:02;24.30;;;3.60;;
11092;SDS011;5600;50.864;6.102;2022-10-22T18:19:03;31.83;;;4.00;;
11092;SDS011;5600;50.864;6.102;2022-10-22T18:22:04;45.00;;;7.43;;
11092;SDS011;5600;50.864;6.102;2022-10-22T18:25:07;67.43;;;9.87;;
11092;SDS011;5600;50.864;6.102;2022-10-22T18:28:11;43.37;;;7.27;;
11092;SDS011;5600;50.864;6.102;2022-10-22T18:31:12;48.67;;;6.53;;
11092;SDS011;5600;50.864;6.102;2022-10-22T18:34:16;36.57;;;5.40;;
11092;SDS011;5600;50.864;6.102;2022-10-22T18:37:17;26.10;;;4.47;;
11092;SDS011;5600;50.864;6.102;2022-10-22T18:40:18;35.43;;;4.80;;
11092;SDS011;5600;50.864;6.102;2022-10-22T18:43:18;38.27;;;4.83;;
11092;SDS011;5600;50.864;6.102;2022-10-22T18:46:19;40.93;;;5.17;;
11092;SDS011;5600;50.864;6.102;2022-10-22T18:49:20;34.53;;;4.67;;
11092;SDS011;5600;50.864;6.102;2022-10-22T18:52:20;47.83;;;5.50;;
11092;SDS011;5600;50.864;6.102;2022-10-22T18:55:21;54.37;;;6.03;;
11092;SDS011;5600;50.864;6.102;2022-10-22T18:58:21;39.10;;;5.13;;
11092;SDS011;5600;50.864;6.102;2022-10-22T19:01:23;47.43;;;5.43;;
11092;SDS011;5600;50.864;6.102;2022-10-22T19:04:25;26.13;;;4.37;;
11092;SDS011;5600;50.864;6.102;2022-10-22T19:07:32;35.27;;;4.53;;
11092;SDS011;5600;50.864;6.102;2022-10-22T19:10:35;39.20;;;4.97;;
11092;SDS011;5600;50.864;6.102;2022-10-22T19:13:36;45.33;;;5.57;;
11092;SDS011;5600;50.864;6.102;2022-10-22T19:16:37;44.33;;;5.73;;
11092;SDS011;5600;50.864;6.102;2022-10-22T19:19:37;36.97;;;4.87;;